sensor_id;sensor_type;location;lat;lon;timestamp;P1;durP1;ratioP1;P2;durP2;ratioP2
24867;SDS011;12941;48.698;9.310;2024-03-07T00:00:04;31.2;;;21.1;;
24867;SDS011;12941;48.698;9.310;2024-03-07T00:01:09;31.2;;;21.1;;
24867;SDS011;12941;48.698;9.310;2024-03-07T00:02:14;32.1;;;20.9;;
24867;SDS011;12941;48.698;9.310;2024-03-07T00:03:14;32.1;;;20.9;;
24867;SDS011;12941;48.698;9.310;2024-03-07T00:04:19;32.1;;;20.9;;
24867;SDS011;12941;48.698;9.310;2024-03-07T00:05:19;32.1;;;20.9;;
24867;SDS011;12941;48.698;9.310;2024-03-07T00:06:19;32.1;;;20.9;;
24867;SDS011;12941;48.698;9.310;2024-03-07T00:07:24;30.8;;;20.9;;
24867;SDS011;12941;48.698;9.310;2024-03-07T00:08:29;30.8;;;20.9;;
24867;SDS011;12941;48.698;9.310;2024-03-07T00:09:34;30.8;;;20.9;;
24867;SDS011;12941;48.698;9.310;2024-03-07T00:10:39;30.8;;;20.9;;
24867;SDS011;12941;48.698;9.310;2024-03-07T00:11:39;30.8;;;20.9;;
24867;SDS011;12941;48.698;9.310;2024-03-07T00:12:44;29.7;;;20.8;;
24867;SDS011;12941;48.698;9.310;2024-03-07T00:13:44;29.7;;;20.8;;
24867;SDS011;12941;48.698;9.310;2024-03-07T00:14:49;29.7;;;20.8;;
24867;SDS011;12941;48.698;9.310;2024-03-07T00:15:49;29.7;;;20.8;;
24867;SDS011;12941;48.698;9.310;2024-03-07T00:16:54;33.3;;;21.2;;
24867;SDS011;12941;48.698;9.310;2024-03-07T00:17:54;33.4;;;21.3;;
24867;SDS011;12941;48.698;9.310;2024-03-07T00:18:59;33.4;;;21.3;;
24867;SDS011;12941;48.698;9.310;2024-03-07T00:19:59;33.4;;;21.3;;
24867;SDS011;12941;48.698;9.310;2024-03-07T00:20:59;33.4;;;21.3;;
24867;SDS011;12941;48.698;9.310;2024-03-07T00:21:59;32.5;;;21.3;;
24867;SDS011;12941;48.698;9.310;2024-03-07T00:23:04;32.5;;;21.3;;
24867;SDS011;12941;48.698;9.310;2024-03-07T00:24:05;32.5;;;21.3;;
24867;SDS011;12941;48.698;9.310;2024-03-07T00:25:05;32.5;;;21.3;;
24867;SDS011;12941;48.698;9.310;2024-03-07T00:26:05;32.5;;;21.3;;
24867;SDS011;12941;48.698;9.310;2024-03-07T00:27:05;32.5;;;22.2;;
24867;SDS011;12941;48.698;9.310;2024-03-07T00:28:09;32.5;;;22.2;;
24867;SDS011;12941;48.698;9.310;2024-03-07T00:29:09;32.5;;;22.2;;
24867;SDS011;12941;48.698;9.310;2024-03-07T00:30:15;32.5;;;22.2;;
24867;SDS011;12941;48.698;9.310;2024-03-07T00:31:15;32.5;;;22.2;;
24867;SDS011;12941;48.698;9.310;2024-03-07T00:32:15;33.8;;;23.7;;
24867;SDS011;12941;48.698;9.310;2024-03-07T00:33:20;33.8;;;23.7;;
24867;SDS011;12941;48.698;9.310;2024-03-07T00:34:20;33.8;;;23.7;;
24867;SDS011;12941;48.698;9.310;2024-03-07T00:35:20;33.8;;;23.7;;
24867;SDS011;12941;48.698;9.310;2024-03-07T00:36:25;33.8;;;23.7;;
24867;SDS011;12941;48.698;9.310;2024-03-07T00:37:25;33.6;;;23.2;;
24867;SDS011;12941;48.698;9.310;2024-03-07T00:38:30;33.6;;;23.2;;
24867;SDS011;12941;48.698;9.310;2024-03-07T00:39:30;33.6;;;23.2;;
24867;SDS011;12941;48.698;9.310;2024-03-07T00:40:35;33.6;;;23.2;;
24867;SDS011;12941;48.698;9.310;2024-03-07T00:41:35;33.6;;;23.2;;
24867;SDS011;12941;48.698;9.310;2024-03-07T00:42:35;35;;;23.8;;
24867;SDS011;12941;48.698;9.310;2024-03-07T00:43:40;35;;;23.8;;
24867;SDS011;12941;48.698;9.310;2024-03-07T00:44:40;35;;;23.8;;
24867;SDS011;12941;48.698;9.310;2024-03-07T00:45:40;35;;;23.8;;
24867;SDS011;12941;48.698;9.310;2024-03-07T00:46:45;35;;;23.8;;
24867;SDS011;12941;48.698;9.310;2024-03-07T00:47:45;34;;;24.1;;
24867;SDS011;12941;48.698;9.310;2024-03-07T00:48:50;34;;;24.1;;
24867;SDS011;12941;48.698;9.310;2024-03-07T00:49:55;34;;;24.1;;
24867;SDS011;12941;48.698;9.310;2024-03-07T00:50:55;34;;;24.1;;
24867;SDS011;12941;48.698;9.310;2024-03-07T00:51:55;34.8;;;24;;
24867;SDS011;12941;48.698;9.310;2024-03-07T00:53:00;34.8;;;23.9;;
24867;SDS011;12941;48.698;9.310;2024-03-07T00:54:00;34.8;;;23.9;;
24867;SDS011;12941;48.698;9.310;2024-03-07T00:55:05;34.8;;;23.9;;
24867;SDS011;12941;48.698;9.310;2024-03-07T00:56:05;34.8;;;23.9;;
24867;SDS011;12941;48.698;9.310;2024-03-07T00:57:05;33.7;;;24;;
24867;SDS011;12941;48.698;9.310;2024-03-07T00:58:10;33.7;;;24;;
24867;SDS011;12941;48.698;9.310;2024-03-07T00:59:10;33.7;;;24;;
24867;SDS011;12941;48.698;9.310;2024-03-07T01:00:15;33.7;;;24;;
24867;SDS011;12941;48.698;9.310;2024-03-07T01:01:15;33.7;;;24;;
24867;SDS011;12941;48.698;9.310;2024-03-07T01:02:20;34.1;;;25;;
24867;SDS011;12941;48.698;9.310;2024-03-07T01:03:25;34.1;;;25;;
24867;SDS011;12941;48.698;9.310;2024-03-07T01:04:25;34.1;;;25;;
24867;SDS011;12941;48.698;9.310;2024-03-07T01:05:30;34.1;;;25;;
24867;SDS011;12941;48.698;9.310;2024-03-07T01:06:30;34.1;;;25;;
24867;SDS011;12941;48.698;9.310;2024-03-07T01:07:30;37.2;;;26.5;;
24867;SDS011;12941;48.698;9.310;2024-03-07T01:08:35;37.2;;;26.5;;
24867;SDS011;12941;48.698;9.310;2024-03-07T01:09:35;37.2;;;26.5;;
24867;SDS011;12941;48.698;9.310;2024-03-07T01:10:40;37.2;;;26.5;;
24867;SDS011;12941;48.698;9.310;2024-03-07T01:11:40;37.2;;;26.5;;
24867;SDS011;12941;48.698;9.310;2024-03-07T01:12:40;37;;;25.2;;
24867;SDS011;12941;48.698;9.310;2024-03-07T01:13:40;37;;;25.2;;
24867;SDS011;12941;48.698;9.310;2024-03-07T01:14:45;37;;;25.2;;
24867;SDS011;12941;48.698;9.310;2024-03-07T01:15:45;37;;;25.2;;
24867;SDS011;12941;48.698;9.310;2024-03-07T01:16:45;37;;;25.2;;
24867;SDS011;12941;48.698;9.310;2024-03-07T01:17:50;38.2;;;27.2;;
24867;SDS011;12941;48.698;9.310;2024-03-07T01:18:50;38.2;;;27.2;;
24867;SDS011;12941;48.698;9.310;2024-03-07T01:19:50;38.2;;;27.2;;
24867;SDS011;12941;48.698;9.310;2024-03-07T01:20:55;38.2;;;27.2;;
24867;SDS011;12941;48.698;9.310;2024-03-07T01:21:55;36.8;;;26.4;;
24867;SDS011;12941;48.698;9.310;2024-03-07T01:22:55;36.8;;;26.3;;
24867;SDS011;12941;48.698;9.310;2024-03-07T01:23:55;36.8;;;26.3;;
24867;SDS011;12941;48.698;9.310;2024-03-07T01:25:00;36.8;;;26.3;;
24867;SDS011;12941;48.698;9.310;2024-03-07T01:26:05;36.8;;;26.3;;
24867;SDS011;12941;48.698;9.310;2024-03-07T01:27:05;37.5;;;25.3;;
24867;SDS011;12941;48.698;9.310;2024-03-07T01:28:10;37.5;;;25.3;;
24867;SDS011;12941;48.698;9.310;2024-03-07T01:29:10;37.5;;;25.3;;
24867;SDS011;12941;48.698;9.310;2024-03-07T01:30:10;37.5;;;25.3;;
24867;SDS011;12941;48.698;9.310;2024-03-07T01:31:10;37.5;;;25.3;;
24867;SDS011;12941;48.698;9.310;2024-03-07T01:32:15;36.9;;;26.7;;
24867;SDS011;12941;48.698;9.310;2024-03-07T01:33:15;36.9;;;26.7;;
24867;SDS011;12941;48.698;9.310;2024-03-07T01:34:15;36.9;;;26.7;;
24867;SDS011;12941;48.698;9.310;2024-03-07T01:35:20;36.9;;;26.7;;
24867;SDS011;12941;48.698;9.310;2024-03-07T01:36:20;36.9;;;26.7;;
24867;SDS011;12941;48.698;9.310;2024-03-07T01:37:25;39.7;;;27;;
24867;SDS011;12941;48.698;9.310;2024-03-07T01:38:25;39.7;;;27;;
24867;SDS011;12941;48.698;9.310;2024-03-07T01:39:30;39.7;;;27;;
24867;SDS011;12941;48.698;9.310;2024-03-07T01:40:30;39.7;;;27;;
24867;SDS011;12941;48.698;9.310;2024-03-07T01:41:35;39.7;;;27;;
24867;SDS011;12941;48.698;9.310;2024-03-07T01:42:40;36.3;;;26.6;;
24867;SDS011;12941;48.698;9.310;2024-03-07T01:43:40;36.3;;;26.6;;
24867;SDS011;12941;48.698;9.310;2024-03-07T01:44:45;36.3;;;26.6;;
24867;SDS011;12941;48.698;9.310;2024-03-07T01:45:51;36.3;;;26.6;;
24867;SDS011;12941;48.698;9.310;2024-03-07T01:46:51;36.3;;;26.6;;
24867;SDS011;12941;48.698;9.310;2024-03-07T01:47:51;39.7;;;26.8;;
24867;SDS011;12941;48.698;9.310;2024-03-07T01:48:55;39.7;;;26.8;;
24867;SDS011;12941;48.698;9.310;2024-03-07T01:50:00;39.7;;;26.8;;
24867;SDS011;12941;48.698;9.310;2024-03-07T01:51:00;39.7;;;26.8;;
24867;SDS011;12941;48.698;9.310;2024-03-07T01:52:05;40.5;;;27.4;;
24867;SDS011;12941;48.698;9.310;2024-03-07T01:53:05;40.5;;;27.4;;
24867;SDS011;12941;48.698;9.310;2024-03-07T01:54:10;40.5;;;27.4;;
24867;SDS011;12941;48.698;9.310;2024-03-07T01:55:10;40.5;;;27.4;;
24867;SDS011;12941;48.698;9.310;2024-03-07T01:56:10;40.5;;;27.4;;
24867;SDS011;12941;48.698;9.310;2024-03-07T01:57:10;37.8;;;26.8;;
24867;SDS011;12941;48.698;9.310;2024-03-07T01:58:17;37.8;;;26.8;;
24867;SDS011;12941;48.698;9.310;2024-03-07T01:59:20;37.8;;;26.8;;
24867;SDS011;12941;48.698;9.310;2024-03-07T02:00:21;37.8;;;26.8;;
24867;SDS011;12941;48.698;9.310;2024-03-07T02:01:25;37.8;;;26.8;;
24867;SDS011;12941;48.698;9.310;2024-03-07T02:02:25;39.9;;;27.4;;
24867;SDS011;12941;48.698;9.310;2024-03-07T02:03:31;39.9;;;27.4;;
24867;SDS011;12941;48.698;9.310;2024-03-07T02:04:31;39.9;;;27.4;;
24867;SDS011;12941;48.698;9.310;2024-03-07T02:05:31;39.9;;;27.4;;
24867;SDS011;12941;48.698;9.310;2024-03-07T02:06:35;39.9;;;27.4;;
24867;SDS011;12941;48.698;9.310;2024-03-07T02:07:35;41.3;;;27.7;;
24867;SDS011;12941;48.698;9.310;2024-03-07T02:08:40;41.3;;;27.7;;
24867;SDS011;12941;48.698;9.310;2024-03-07T02:09:40;41.3;;;27.7;;
24867;SDS011;12941;48.698;9.310;2024-03-07T02:10:45;41.3;;;27.7;;
24867;SDS011;12941;48.698;9.310;2024-03-07T02:11:47;41.3;;;27.7;;
24867;SDS011;12941;48.698;9.310;2024-03-07T02:12:45;40.1;;;27.7;;
24867;SDS011;12941;48.698;9.310;2024-03-07T02:13:50;40.1;;;27.7;;
24867;SDS011;12941;48.698;9.310;2024-03-07T02:14:55;40.1;;;27.7;;
24867;SDS011;12941;48.698;9.310;2024-03-07T02:16:01;40.1;;;27.7;;
24867;SDS011;12941;48.698;9.310;2024-03-07T02:17:01;39.7;;;27.5;;
24867;SDS011;12941;48.698;9.310;2024-03-07T02:18:01;39.7;;;27.5;;
24867;SDS011;12941;48.698;9.310;2024-03-07T02:19:01;39.7;;;27.5;;
24867;SDS011;12941;48.698;9.310;2024-03-07T02:20:06;39.7;;;27.5;;
24867;SDS011;12941;48.698;9.310;2024-03-07T02:21:11;39.7;;;27.5;;
24867;SDS011;12941;48.698;9.310;2024-03-07T02:22:15;39.1;;;28.3;;
24867;SDS011;12941;48.698;9.310;2024-03-07T02:23:21;39.1;;;28.3;;
24867;SDS011;12941;48.698;9.310;2024-03-07T02:24:21;39.1;;;28.3;;
24867;SDS011;12941;48.698;9.310;2024-03-07T02:25:25;39.1;;;28.3;;
24867;SDS011;12941;48.698;9.310;2024-03-07T02:26:31;39.1;;;28.3;;
24867;SDS011;12941;48.698;9.310;2024-03-07T02:27:35;39.7;;;28.5;;
24867;SDS011;12941;48.698;9.310;2024-03-07T02:28:35;39.7;;;28.5;;
24867;SDS011;12941;48.698;9.310;2024-03-07T02:29:41;39.7;;;28.5;;
24867;SDS011;12941;48.698;9.310;2024-03-07T02:30:45;39.7;;;28.5;;
24867;SDS011;12941;48.698;9.310;2024-03-07T02:31:51;39.7;;;28.5;;
24867;SDS011;12941;48.698;9.310;2024-03-07T02:32:51;37.6;;;26.9;;
24867;SDS011;12941;48.698;9.310;2024-03-07T02:33:51;37.6;;;26.9;;
24867;SDS011;12941;48.698;9.310;2024-03-07T02:34:55;37.6;;;26.9;;
24867;SDS011;12941;48.698;9.310;2024-03-07T02:35:55;37.6;;;26.9;;
24867;SDS011;12941;48.698;9.310;2024-03-07T02:36:57;40.9;;;28.2;;
24867;SDS011;12941;48.698;9.310;2024-03-07T02:38:01;40.9;;;28.2;;
24867;SDS011;12941;48.698;9.310;2024-03-07T02:39:01;40.9;;;28.2;;
24867;SDS011;12941;48.698;9.310;2024-03-07T02:40:06;40.9;;;28.2;;
24867;SDS011;12941;48.698;9.310;2024-03-07T02:41:11;40.9;;;28.2;;
24867;SDS011;12941;48.698;9.310;2024-03-07T02:42:15;39.6;;;28.3;;
24867;SDS011;12941;48.698;9.310;2024-03-07T02:43:21;39.6;;;28.3;;
24867;SDS011;12941;48.698;9.310;2024-03-07T02:44:25;39.6;;;28.3;;
24867;SDS011;12941;48.698;9.310;2024-03-07T02:45:25;39.6;;;28.3;;
24867;SDS011;12941;48.698;9.310;2024-03-07T02:46:31;39.6;;;28.3;;
24867;SDS011;12941;48.698;9.310;2024-03-07T02:47:31;38.3;;;27.4;;
24867;SDS011;12941;48.698;9.310;2024-03-07T02:48:36;38.3;;;27.4;;
24867;SDS011;12941;48.698;9.310;2024-03-07T02:49:36;38.3;;;27.4;;
24867;SDS011;12941;48.698;9.310;2024-03-07T02:50:41;38.3;;;27.4;;
24867;SDS011;12941;48.698;9.310;2024-03-07T02:51:46;38.3;;;27.4;;
24867;SDS011;12941;48.698;9.310;2024-03-07T02:52:46;40.2;;;28.1;;
24867;SDS011;12941;48.698;9.310;2024-03-07T02:53:46;40.2;;;28.1;;
24867;SDS011;12941;48.698;9.310;2024-03-07T02:54:46;40.2;;;28.1;;
24867;SDS011;12941;48.698;9.310;2024-03-07T02:55:51;40.2;;;28.1;;
24867;SDS011;12941;48.698;9.310;2024-03-07T02:56:56;39.3;;;27.6;;
24867;SDS011;12941;48.698;9.310;2024-03-07T02:58:01;39.2;;;27.5;;
24867;SDS011;12941;48.698;9.310;2024-03-07T02:59:05;39.2;;;27.5;;
24867;SDS011;12941;48.698;9.310;2024-03-07T03:00:06;39.2;;;27.5;;
24867;SDS011;12941;48.698;9.310;2024-03-07T03:01:11;39.2;;;27.5;;
24867;SDS011;12941;48.698;9.310;2024-03-07T03:02:11;38.7;;;27.9;;
24867;SDS011;12941;48.698;9.310;2024-03-07T03:03:16;38.7;;;27.9;;
24867;SDS011;12941;48.698;9.310;2024-03-07T03:04:21;38.7;;;27.9;;
24867;SDS011;12941;48.698;9.310;2024-03-07T03:05:21;38.7;;;27.9;;
24867;SDS011;12941;48.698;9.310;2024-03-07T03:06:26;38.7;;;27.9;;
24867;SDS011;12941;48.698;9.310;2024-03-07T03:07:26;39.5;;;27.8;;
24867;SDS011;12941;48.698;9.310;2024-03-07T03:08:31;39.5;;;27.8;;
24867;SDS011;12941;48.698;9.310;2024-03-07T03:09:36;39.5;;;27.8;;
24867;SDS011;12941;48.698;9.310;2024-03-07T03:10:36;39.5;;;27.8;;
24867;SDS011;12941;48.698;9.310;2024-03-07T03:11:36;39.5;;;27.8;;
24867;SDS011;12941;48.698;9.310;2024-03-07T03:12:36;36.9;;;27.7;;
24867;SDS011;12941;48.698;9.310;2024-03-07T03:13:41;36.9;;;27.7;;
24867;SDS011;12941;48.698;9.310;2024-03-07T03:14:46;36.9;;;27.7;;
24867;SDS011;12941;48.698;9.310;2024-03-07T03:15:46;36.9;;;27.7;;
24867;SDS011;12941;48.698;9.310;2024-03-07T03:16:46;36.9;;;27.7;;
24867;SDS011;12941;48.698;9.310;2024-03-07T03:17:46;39;;;28.8;;
24867;SDS011;12941;48.698;9.310;2024-03-07T03:18:51;39;;;28.8;;
24867;SDS011;12941;48.698;9.310;2024-03-07T03:19:51;39;;;28.8;;
24867;SDS011;12941;48.698;9.310;2024-03-07T03:20:51;39;;;28.8;;
24867;SDS011;12941;48.698;9.310;2024-03-07T03:21:56;40.4;;;28.8;;
24867;SDS011;12941;48.698;9.310;2024-03-07T03:22:56;40.4;;;28.7;;
24867;SDS011;12941;48.698;9.310;2024-03-07T03:23:56;40.4;;;28.7;;
24867;SDS011;12941;48.698;9.310;2024-03-07T03:24:56;40.4;;;28.7;;
24867;SDS011;12941;48.698;9.310;2024-03-07T03:25:56;40.4;;;28.7;;
24867;SDS011;12941;48.698;9.310;2024-03-07T03:26:57;41.1;;;28.5;;
24867;SDS011;12941;48.698;9.310;2024-03-07T03:28:01;41.1;;;28.5;;
24867;SDS011;12941;48.698;9.310;2024-03-07T03:29:01;41.1;;;28.5;;
24867;SDS011;12941;48.698;9.310;2024-03-07T03:30:01;41.1;;;28.5;;
24867;SDS011;12941;48.698;9.310;2024-03-07T03:31:06;41.1;;;28.5;;
24867;SDS011;12941;48.698;9.310;2024-03-07T03:32:06;40.9;;;27.8;;
24867;SDS011;12941;48.698;9.310;2024-03-07T03:33:06;40.9;;;27.8;;
24867;SDS011;12941;48.698;9.310;2024-03-07T03:34:11;40.9;;;27.8;;
24867;SDS011;12941;48.698;9.310;2024-03-07T03:35:11;40.9;;;27.8;;
24867;SDS011;12941;48.698;9.310;2024-03-07T03:36:16;40.9;;;27.8;;
24867;SDS011;12941;48.698;9.310;2024-03-07T03:37:16;37.7;;;27.8;;
24867;SDS011;12941;48.698;9.310;2024-03-07T03:38:16;37.7;;;27.8;;
24867;SDS011;12941;48.698;9.310;2024-03-07T03:39:21;37.7;;;27.8;;
24867;SDS011;12941;48.698;9.310;2024-03-07T03:40:21;37.7;;;27.8;;
24867;SDS011;12941;48.698;9.310;2024-03-07T03:41:21;37.7;;;27.8;;
24867;SDS011;12941;48.698;9.310;2024-03-07T03:42:21;40.2;;;28;;
24867;SDS011;12941;48.698;9.310;2024-03-07T03:43:26;40.2;;;28;;
24867;SDS011;12941;48.698;9.310;2024-03-07T03:44:31;40.2;;;28;;
24867;SDS011;12941;48.698;9.310;2024-03-07T03:45:31;40.2;;;28;;
24867;SDS011;12941;48.698;9.310;2024-03-07T03:46:31;40.2;;;28;;
24867;SDS011;12941;48.698;9.310;2024-03-07T03:47:36;41.8;;;27.5;;
24867;SDS011;12941;48.698;9.310;2024-03-07T03:48:41;41.8;;;27.5;;
24867;SDS011;12941;48.698;9.310;2024-03-07T03:49:41;41.8;;;27.5;;
24867;SDS011;12941;48.698;9.310;2024-03-07T03:50:41;41.8;;;27.5;;
24867;SDS011;12941;48.698;9.310;2024-03-07T03:51:46;41.8;;;27.5;;
24867;SDS011;12941;48.698;9.310;2024-03-07T03:52:46;39.3;;;28.1;;
24867;SDS011;12941;48.698;9.310;2024-03-07T03:53:51;39.3;;;28.1;;
24867;SDS011;12941;48.698;9.310;2024-03-07T03:54:51;39.3;;;28.1;;
24867;SDS011;12941;48.698;9.310;2024-03-07T03:55:51;39.3;;;28.1;;
24867;SDS011;12941;48.698;9.310;2024-03-07T03:56:56;40.7;;;27.5;;
24867;SDS011;12941;48.698;9.310;2024-03-07T03:57:56;40.3;;;27.3;;
24867;SDS011;12941;48.698;9.310;2024-03-07T03:58:56;40.3;;;27.3;;
24867;SDS011;12941;48.698;9.310;2024-03-07T04:00:01;40.3;;;27.3;;
24867;SDS011;12941;48.698;9.310;2024-03-07T04:01:01;40.3;;;27.3;;
24867;SDS011;12941;48.698;9.310;2024-03-07T04:02:01;42.3;;;28.1;;
24867;SDS011;12941;48.698;9.310;2024-03-07T04:03:06;42.3;;;28.1;;
24867;SDS011;12941;48.698;9.310;2024-03-07T04:04:11;42.3;;;28.1;;
24867;SDS011;12941;48.698;9.310;2024-03-07T04:05:11;42.3;;;28.1;;
24867;SDS011;12941;48.698;9.310;2024-03-07T04:06:16;42.3;;;28.1;;
24867;SDS011;12941;48.698;9.310;2024-03-07T04:07:16;37.7;;;26.6;;
24867;SDS011;12941;48.698;9.310;2024-03-07T04:08:16;37.7;;;26.6;;
24867;SDS011;12941;48.698;9.310;2024-03-07T04:09:16;37.7;;;26.6;;
24867;SDS011;12941;48.698;9.310;2024-03-07T04:10:16;37.7;;;26.6;;
24867;SDS011;12941;48.698;9.310;2024-03-07T04:11:21;37.7;;;26.6;;
24867;SDS011;12941;48.698;9.310;2024-03-07T04:12:26;39;;;27.6;;
24867;SDS011;12941;48.698;9.310;2024-03-07T04:13:26;39;;;27.6;;
24867;SDS011;12941;48.698;9.310;2024-03-07T04:14:31;39;;;27.6;;
24867;SDS011;12941;48.698;9.310;2024-03-07T04:15:31;39;;;27.6;;
24867;SDS011;12941;48.698;9.310;2024-03-07T04:16:36;39;;;27.6;;
24867;SDS011;12941;48.698;9.310;2024-03-07T04:17:41;39;;;27.2;;
24867;SDS011;12941;48.698;9.310;2024-03-07T04:18:41;39;;;27.2;;
24867;SDS011;12941;48.698;9.310;2024-03-07T04:19:41;39;;;27.2;;
24867;SDS011;12941;48.698;9.310;2024-03-07T04:20:41;39;;;27.2;;
24867;SDS011;12941;48.698;9.310;2024-03-07T04:21:46;39;;;27.2;;
24867;SDS011;12941;48.698;9.310;2024-03-07T04:22:46;38.8;;;25.8;;
24867;SDS011;12941;48.698;9.310;2024-03-07T04:23:51;38.8;;;25.8;;
24867;SDS011;12941;48.698;9.310;2024-03-07T04:24:51;38.8;;;25.8;;
24867;SDS011;12941;48.698;9.310;2024-03-07T04:25:51;38.8;;;25.8;;
24867;SDS011;12941;48.698;9.310;2024-03-07T04:26:51;38.8;;;25.8;;
24867;SDS011;12941;48.698;9.310;2024-03-07T04:27:51;36.3;;;24.8;;
24867;SDS011;12941;48.698;9.310;2024-03-07T04:28:51;36.3;;;24.8;;
24867;SDS011;12941;48.698;9.310;2024-03-07T04:29:51;36.3;;;24.8;;
24867;SDS011;12941;48.698;9.310;2024-03-07T04:30:51;36.3;;;24.8;;
24867;SDS011;12941;48.698;9.310;2024-03-07T04:31:56;37.7;;;25.5;;
24867;SDS011;12941;48.698;9.310;2024-03-07T04:32:56;37.6;;;25.3;;
24867;SDS011;12941;48.698;9.310;2024-03-07T04:34:01;37.6;;;25.3;;
24867;SDS011;12941;48.698;9.310;2024-03-07T04:35:01;37.6;;;25.3;;
24867;SDS011;12941;48.698;9.310;2024-03-07T04:36:01;37.6;;;25.3;;
24867;SDS011;12941;48.698;9.310;2024-03-07T04:37:06;34.5;;;24.5;;
24867;SDS011;12941;48.698;9.310;2024-03-07T04:38:11;34.5;;;24.5;;
24867;SDS011;12941;48.698;9.310;2024-03-07T04:39:11;34.5;;;24.5;;
24867;SDS011;12941;48.698;9.310;2024-03-07T04:40:16;34.5;;;24.5;;
24867;SDS011;12941;48.698;9.310;2024-03-07T04:41:16;34.5;;;24.5;;
24867;SDS011;12941;48.698;9.310;2024-03-07T04:42:21;36.8;;;24.8;;
24867;SDS011;12941;48.698;9.310;2024-03-07T04:43:26;36.8;;;24.8;;
24867;SDS011;12941;48.698;9.310;2024-03-07T04:44:32;36.8;;;24.8;;
24867;SDS011;12941;48.698;9.310;2024-03-07T04:45:31;36.8;;;24.8;;
24867;SDS011;12941;48.698;9.310;2024-03-07T04:46:36;36.8;;;24.8;;
24867;SDS011;12941;48.698;9.310;2024-03-07T04:47:36;32.5;;;24;;
24867;SDS011;12941;48.698;9.310;2024-03-07T04:48:36;32.5;;;24;;
24867;SDS011;12941;48.698;9.310;2024-03-07T04:49:42;32.5;;;24;;
24867;SDS011;12941;48.698;9.310;2024-03-07T04:50:46;32.5;;;24;;
24867;SDS011;12941;48.698;9.310;2024-03-07T04:51:46;32.5;;;24;;
24867;SDS011;12941;48.698;9.310;2024-03-07T04:52:51;34.5;;;24.6;;
24867;SDS011;12941;48.698;9.310;2024-03-07T04:53:51;34.5;;;24.6;;
24867;SDS011;12941;48.698;9.310;2024-03-07T04:54:51;34.5;;;24.6;;
24867;SDS011;12941;48.698;9.310;2024-03-07T04:55:56;34.5;;;24.6;;
24867;SDS011;12941;48.698;9.310;2024-03-07T04:56:57;36.3;;;24.2;;
24867;SDS011;12941;48.698;9.310;2024-03-07T04:58:01;36.3;;;24.2;;
24867;SDS011;12941;48.698;9.310;2024-03-07T04:59:01;36.3;;;24.2;;
24867;SDS011;12941;48.698;9.310;2024-03-07T05:00:01;36.3;;;24.2;;
24867;SDS011;12941;48.698;9.310;2024-03-07T05:01:01;36.3;;;24.2;;
24867;SDS011;12941;48.698;9.310;2024-03-07T05:02:06;35.4;;;24.2;;
24867;SDS011;12941;48.698;9.310;2024-03-07T05:03:06;35.4;;;24.2;;
24867;SDS011;12941;48.698;9.310;2024-03-07T05:04:11;35.4;;;24.2;;
24867;SDS011;12941;48.698;9.310;2024-03-07T05:05:16;35.4;;;24.2;;
24867;SDS011;12941;48.698;9.310;2024-03-07T05:06:21;35.4;;;24.2;;
24867;SDS011;12941;48.698;9.310;2024-03-07T05:07:26;36;;;24.3;;
24867;SDS011;12941;48.698;9.310;2024-03-07T05:08:26;36;;;24.3;;
24867;SDS011;12941;48.698;9.310;2024-03-07T05:09:31;36;;;24.3;;
24867;SDS011;12941;48.698;9.310;2024-03-07T05:10:31;36;;;24.3;;
24867;SDS011;12941;48.698;9.310;2024-03-07T05:11:36;36;;;24.3;;
24867;SDS011;12941;48.698;9.310;2024-03-07T05:12:36;33.6;;;22.8;;
24867;SDS011;12941;48.698;9.310;2024-03-07T05:13:41;33.6;;;22.8;;
24867;SDS011;12941;48.698;9.310;2024-03-07T05:14:46;33.6;;;22.8;;
24867;SDS011;12941;48.698;9.310;2024-03-07T05:15:47;33.6;;;22.8;;
24867;SDS011;12941;48.698;9.310;2024-03-07T05:16:51;33.6;;;22.8;;
24867;SDS011;12941;48.698;9.310;2024-03-07T05:17:57;32.4;;;23.4;;
24867;SDS011;12941;48.698;9.310;2024-03-07T05:19:02;32.4;;;23.4;;
24867;SDS011;12941;48.698;9.310;2024-03-07T05:20:07;32.4;;;23.4;;
24867;SDS011;12941;48.698;9.310;2024-03-07T05:21:07;32.4;;;23.4;;
24867;SDS011;12941;48.698;9.310;2024-03-07T05:22:11;31.5;;;22.2;;
24867;SDS011;12941;48.698;9.310;2024-03-07T05:23:17;31.5;;;22.2;;
24867;SDS011;12941;48.698;9.310;2024-03-07T05:24:22;31.5;;;22.2;;
24867;SDS011;12941;48.698;9.310;2024-03-07T05:25:26;31.5;;;22.2;;
24867;SDS011;12941;48.698;9.310;2024-03-07T05:26:27;31.5;;;22.2;;
24867;SDS011;12941;48.698;9.310;2024-03-07T05:27:32;30.9;;;21.4;;
24867;SDS011;12941;48.698;9.310;2024-03-07T05:28:32;30.9;;;21.4;;
24867;SDS011;12941;48.698;9.310;2024-03-07T05:29:36;30.9;;;21.4;;
24867;SDS011;12941;48.698;9.310;2024-03-07T05:30:37;30.9;;;21.4;;
24867;SDS011;12941;48.698;9.310;2024-03-07T05:31:41;30.9;;;21.4;;
24867;SDS011;12941;48.698;9.310;2024-03-07T05:32:42;32.7;;;21.6;;
24867;SDS011;12941;48.698;9.310;2024-03-07T05:33:47;32.7;;;21.6;;
24867;SDS011;12941;48.698;9.310;2024-03-07T05:34:51;32.7;;;21.6;;
24867;SDS011;12941;48.698;9.310;2024-03-07T05:35:51;32.7;;;21.6;;
24867;SDS011;12941;48.698;9.310;2024-03-07T05:36:57;31.8;;;20.4;;
24867;SDS011;12941;48.698;9.310;2024-03-07T05:38:02;31.8;;;20.4;;
24867;SDS011;12941;48.698;9.310;2024-03-07T05:39:07;31.8;;;20.4;;
24867;SDS011;12941;48.698;9.310;2024-03-07T05:40:07;31.8;;;20.4;;
24867;SDS011;12941;48.698;9.310;2024-03-07T05:41:07;31.8;;;20.4;;
24867;SDS011;12941;48.698;9.310;2024-03-07T05:42:12;31.4;;;21;;
24867;SDS011;12941;48.698;9.310;2024-03-07T05:43:17;31.4;;;21;;
24867;SDS011;12941;48.698;9.310;2024-03-07T05:44:17;31.4;;;21;;
24867;SDS011;12941;48.698;9.310;2024-03-07T05:45:22;31.4;;;21;;
24867;SDS011;12941;48.698;9.310;2024-03-07T05:46:22;31.4;;;21;;
24867;SDS011;12941;48.698;9.310;2024-03-07T05:47:22;27.8;;;20.1;;
24867;SDS011;12941;48.698;9.310;2024-03-07T05:48:27;27.8;;;20.1;;
24867;SDS011;12941;48.698;9.310;2024-03-07T05:49:27;27.8;;;20.1;;
24867;SDS011;12941;48.698;9.310;2024-03-07T05:50:32;27.8;;;20.1;;
24867;SDS011;12941;48.698;9.310;2024-03-07T05:51:37;27.8;;;20.1;;
24867;SDS011;12941;48.698;9.310;2024-03-07T05:52:42;27.4;;;19.4;;
24867;SDS011;12941;48.698;9.310;2024-03-07T05:53:47;27.4;;;19.4;;
24867;SDS011;12941;48.698;9.310;2024-03-07T05:54:52;27.4;;;19.4;;
24867;SDS011;12941;48.698;9.310;2024-03-07T05:55:57;27.4;;;19.4;;
24867;SDS011;12941;48.698;9.310;2024-03-07T05:56:57;28.3;;;18.9;;
24867;SDS011;12941;48.698;9.310;2024-03-07T05:58:02;28.3;;;18.9;;
24867;SDS011;12941;48.698;9.310;2024-03-07T05:59:02;28.3;;;18.9;;
24867;SDS011;12941;48.698;9.310;2024-03-07T06:00:02;28.3;;;18.9;;
24867;SDS011;12941;48.698;9.310;2024-03-07T06:01:07;28.3;;;18.9;;
24867;SDS011;12941;48.698;9.310;2024-03-07T06:02:12;26.6;;;18.9;;
24867;SDS011;12941;48.698;9.310;2024-03-07T06:03:12;26.6;;;18.9;;
24867;SDS011;12941;48.698;9.310;2024-03-07T06:04:17;26.6;;;18.9;;
24867;SDS011;12941;48.698;9.310;2024-03-07T06:05:22;26.6;;;18.9;;
24867;SDS011;12941;48.698;9.310;2024-03-07T06:06:27;26.6;;;18.9;;
24867;SDS011;12941;48.698;9.310;2024-03-07T06:07:27;29.4;;;19.1;;
24867;SDS011;12941;48.698;9.310;2024-03-07T06:08:27;29.4;;;19.1;;
24867;SDS011;12941;48.698;9.310;2024-03-07T06:09:32;29.4;;;19.1;;
24867;SDS011;12941;48.698;9.310;2024-03-07T06:10:37;29.4;;;19.1;;
24867;SDS011;12941;48.698;9.310;2024-03-07T06:11:42;29.4;;;19.1;;
24867;SDS011;12941;48.698;9.310;2024-03-07T06:12:42;26.2;;;19.2;;
24867;SDS011;12941;48.698;9.310;2024-03-07T06:13:47;26.2;;;19.2;;
24867;SDS011;12941;48.698;9.310;2024-03-07T06:14:52;26.2;;;19.2;;
24867;SDS011;12941;48.698;9.310;2024-03-07T06:15:52;26.2;;;19.2;;
24867;SDS011;12941;48.698;9.310;2024-03-07T06:16:52;26.2;;;19.2;;
24867;SDS011;12941;48.698;9.310;2024-03-07T06:17:57;28.8;;;19.6;;